createdAt,value
2018-06-13T00:02:01.000Z,97263.45
2018-06-13T00:04:29.460Z,97263.80
2018-06-13T00:06:57.864Z,97263.77
2018-06-13T00:09:26.278Z,97267.16
2018-06-13T00:11:54.761Z,97276.91
2018-06-13T00:14:23.277Z,97275.53
2018-06-13T00:16:51.738Z,97276.79
2018-06-13T00:19:20.185Z,97277.43
2018-06-13T00:21:48.603Z,97283.80
2018-06-13T00:24:17.076Z,97288.28
2018-06-13T00:26:45.508Z,97279.94
2018-06-13T00:29:14.072Z,97280.30
2018-06-13T00:31:42.532Z,97281.07
2018-06-13T00:34:10.956Z,97281.98
2018-06-13T00:36:39.379Z,97289.30
2018-06-13T00:39:07.767Z,97280.84
2018-06-13T00:41:36.221Z,97281.20
2018-06-13T00:44:04.925Z,97277.55
2018-06-13T00:46:33.628Z,97273.20
2018-06-13T00:49:02.064Z,97272.09
2018-06-13T00:51:30.505Z,97275.57
2018-06-13T00:53:58.957Z,97278.38
2018-06-13T00:56:32.367Z,97273.75
2018-06-13T00:59:00.761Z,97272.92
2018-06-13T01:01:29.240Z,97269.77
2018-06-13T01:03:57.674Z,97274.25
2018-06-13T01:06:26.711Z,97265.63
2018-06-13T01:08:55.123Z,97272.25
2018-06-13T01:11:23.596Z,97275.73
2018-06-13T01:13:52.022Z,97271.11
2018-06-13T01:16:20.475Z,97272.14
2018-06-13T01:18:49.068Z,97275.68
2018-06-13T01:21:17.716Z,97277.50
2018-06-13T01:23:46.140Z,97281.91
2018-06-13T01:26:14.583Z,97285.86
2018-06-13T01:28:43.023Z,97287.70
2018-06-13T01:31:11.509Z,97274.44
2018-06-13T01:33:39.889Z,97267.16
2018-06-13T01:36:08.374Z,97257.23
2018-06-13T01:38:36.838Z,97249.27
2018-06-13T01:41:05.318Z,97246.76
2018-06-13T01:43:34.263Z,97236.81
2018-06-13T01:46:02.680Z,97236.13
2018-06-13T01:48:31.096Z,97241.78
2018-06-13T01:51:00.030Z,97251.72
2018-06-13T01:53:29.485Z,97249.36
2018-06-13T01:55:58.027Z,97253.59
2018-06-13T01:58:26.469Z,97240.99
2018-06-13T02:00:55.251Z,97237.31
2018-06-13T02:03:23.676Z,97234.98
2018-06-13T02:05:52.128Z,97229.92
2018-06-13T02:08:20.544Z,97239.49
2018-06-13T02:10:48.959Z,97242.41
2018-06-13T02:13:17.411Z,97243.89
2018-06-13T02:15:45.865Z,97252.53
2018-06-13T02:18:14.291Z,97250.41
2018-06-13T02:20:42.711Z,97244.16
2018-06-13T02:23:11.175Z,97237.38
2018-06-13T02:25:39.604Z,97234.05
2018-06-13T02:28:08.025Z,97228.25
2018-06-13T02:30:36.465Z,97224.02
2018-06-13T02:33:05.100Z,97221.15
2018-06-13T02:35:33.523Z,97225.06
2018-06-13T02:38:02.010Z,97226.70
2018-06-13T02:40:30.539Z,97226.33
2018-06-13T02:42:58.999Z,97229.63
2018-06-13T02:45:27.408Z,97233.48
2018-06-13T02:47:55.844Z,97237.06
2018-06-13T02:50:24.320Z,97235.09
2018-06-13T02:52:52.938Z,97237.75
2018-06-13T02:55:21.468Z,97241.19
2018-06-13T02:57:49.915Z,97243.28
2018-06-13T03:00:18.324Z,97245.80
2018-06-13T03:02:46.755Z,97244.80
2018-06-13T03:05:15.264Z,97241.25
2018-06-13T03:07:43.710Z,97244.41
2018-06-13T03:10:12.379Z,97239.27
2018-06-13T03:12:40.791Z,97237.44
2018-06-13T03:15:09.224Z,97237.31
2018-06-13T03:17:37.726Z,97228.48
2018-06-13T03:20:06.162Z,97229.38
2018-06-13T03:22:34.556Z,97227.02
2018-06-13T03:25:03.438Z,97228.58
2018-06-13T03:27:31.840Z,97227.95
2018-06-13T03:30:00.496Z,97225.00
2018-06-13T03:32:29.042Z,97232.97
2018-06-13T03:34:57.447Z,97226.42
2018-06-13T03:37:26.119Z,97231.46
2018-06-13T03:39:54.791Z,97229.75
2018-06-13T03:42:23.200Z,97227.59
2018-06-13T03:44:51.615Z,97222.70
2018-06-13T03:47:20.043Z,97226.05
2018-06-13T03:49:48.496Z,97227.53
2018-06-13T03:52:16.927Z,97230.47
2018-06-13T03:54:45.375Z,97234.86
2018-06-13T03:57:13.860Z,97233.15
2018-06-13T03:59:42.262Z,97230.10
2018-06-13T04:02:10.696Z,97227.37
2018-06-13T04:04:39.192Z,97222.33
2018-06-13T04:07:07.672Z,97225.92
2018-06-13T04:11:05.470Z,97220.81
2018-06-13T04:13:33.935Z,97223.33
2018-06-13T04:16:02.461Z,97222.42
2018-06-13T04:18:30.872Z,97222.83
2018-06-13T04:20:59.325Z,97224.94
2018-06-13T04:23:27.760Z,97221.38
2018-06-13T04:25:56.212Z,97223.05
2018-06-13T04:28:24.646Z,97217.95
2018-06-13T04:30:54.272Z,97222.84
2018-06-13T04:33:23.012Z,97224.05
2018-06-13T04:35:51.437Z,97227.32
2018-06-13T04:38:20.210Z,97225.06
2018-06-13T04:40:48.670Z,97225.49
2018-06-13T04:43:17.110Z,97222.27
2018-06-13T04:45:45.859Z,97225.98
2018-06-13T04:48:14.274Z,97226.53
2018-06-13T04:50:42.988Z,97230.81
2018-06-13T04:53:11.358Z,97232.80
2018-06-13T04:55:39.760Z,97229.55
2018-06-13T04:58:08.195Z,97231.72
2018-06-13T05:00:36.731Z,97229.98
2018-06-13T05:03:05.205Z,97234.57
2018-06-13T05:05:33.684Z,97234.66
2018-06-13T05:08:02.103Z,97232.75
2018-06-13T05:10:30.557Z,97230.76
2018-06-13T05:12:59.022Z,97236.60
2018-06-13T05:15:27.510Z,97237.23
2018-06-13T05:17:55.930Z,97226.57
2018-06-13T05:20:24.382Z,97222.19
2018-06-13T05:22:52.819Z,97225.89
2018-06-13T05:25:21.252Z,97234.70
2018-06-13T05:27:49.399Z,97234.36
2018-06-13T05:30:17.827Z,97238.19
2018-06-13T05:32:46.255Z,97241.81
2018-06-13T05:35:14.668Z,97237.77
2018-06-13T05:37:43.087Z,97242.02
2018-06-13T05:40:11.522Z,97247.47
2018-06-13T05:42:39.949Z,97245.38
2018-06-13T05:45:08.416Z,97249.41
2018-06-13T05:47:36.863Z,97250.14
2018-06-13T05:50:05.286Z,97245.52
2018-06-13T05:52:33.727Z,97246.08
2018-06-13T05:55:02.244Z,97244.44
2018-06-13T05:57:30.616Z,97241.88
2018-06-13T05:59:59.011Z,97247.00
2018-06-13T06:02:27.440Z,97250.97
2018-06-13T06:04:55.827Z,97249.30
2018-06-13T06:07:24.237Z,97243.84
2018-06-13T06:09:52.668Z,97253.66
2018-06-13T06:12:21.091Z,97254.19
2018-06-13T06:14:49.519Z,97247.89
2018-06-13T06:17:18.054Z,97251.23
2018-06-13T06:19:46.438Z,97250.39
2018-06-13T06:22:14.845Z,97250.73
2018-06-13T06:24:43.280Z,97254.38
2018-06-13T06:27:11.713Z,97256.66
2018-06-13T06:29:40.120Z,97256.22
2018-06-13T06:32:08.621Z,97257.66
2018-06-13T06:34:37.115Z,97262.23
2018-06-13T06:37:05.521Z,97263.31
2018-06-13T06:39:33.976Z,97255.93
2018-06-13T06:42:02.495Z,97263.02
2018-06-13T06:44:30.893Z,97259.18
2018-06-13T06:46:59.379Z,97267.44
2018-06-13T06:49:27.784Z,97263.38
2018-06-13T06:51:56.192Z,97269.94
2018-06-13T06:54:24.685Z,97270.52
2018-06-13T06:56:53.107Z,97273.41
2018-06-13T06:59:21.543Z,97269.83
2018-06-13T07:01:49.960Z,97272.77
2018-06-13T07:04:18.543Z,97270.72
2018-06-13T07:06:46.972Z,97270.44
2018-06-13T07:09:15.433Z,97265.89
2018-06-13T07:11:43.919Z,97271.47
2018-06-13T07:14:12.368Z,97270.67
2018-06-13T07:16:40.775Z,97272.45
2018-06-13T07:19:09.203Z,97277.27
2018-06-13T07:21:37.643Z,97277.45
2018-06-13T07:24:06.204Z,97283.23
2018-06-13T07:26:34.631Z,97283.46
2018-06-13T07:29:03.086Z,97278.34
2018-06-13T07:31:31.536Z,97283.42
2018-06-13T07:33:59.983Z,97279.31
2018-06-13T07:36:28.375Z,97278.34
2018-06-13T07:38:56.786Z,97285.81
2018-06-13T07:41:25.205Z,97281.86
2018-06-13T07:43:53.868Z,97287.06
2018-06-13T07:46:22.260Z,97287.97
2018-06-13T07:48:50.672Z,97290.44
2018-06-13T07:51:19.120Z,97293.46
2018-06-13T07:53:47.547Z,97301.09
2018-06-13T07:56:15.959Z,97303.56
2018-06-13T07:58:44.363Z,97304.09
2018-06-13T08:01:12.774Z,97314.70
2018-06-13T08:03:41.227Z,97311.71
2018-06-13T08:06:09.702Z,97309.55
2018-06-13T08:08:38.327Z,97308.23
2018-06-13T08:11:07.009Z,97310.54
2018-06-13T08:13:35.624Z,97308.55
2018-06-13T08:16:04.054Z,97277.70
2018-06-13T08:18:32.451Z,97318.98
2018-06-13T08:21:01.152Z,97320.16
2018-06-13T08:23:29.841Z,97321.63
2018-06-13T08:25:58.440Z,97327.63
2018-06-13T08:28:26.911Z,97329.80
2018-06-13T08:30:55.356Z,97326.12
2018-06-13T08:33:23.807Z,97319.34
2018-06-13T08:35:52.195Z,97321.34
2018-06-13T08:38:20.627Z,97329.30
2018-06-13T08:40:49.096Z,97330.28
2018-06-13T08:43:17.557Z,97335.59
2018-06-13T08:45:46.204Z,97337.23
2018-06-13T08:48:14.636Z,97336.07
2018-06-13T08:50:43.082Z,97333.43
2018-06-13T08:53:11.529Z,97329.29
2018-06-13T08:55:40.016Z,97331.95
2018-06-13T08:58:08.446Z,97329.28
2018-06-13T09:00:36.866Z,97334.44
2018-06-13T09:03:05.347Z,97336.85
2018-06-13T09:05:33.843Z,97327.56
2018-06-13T09:08:02.263Z,97339.11
2018-06-13T09:10:30.678Z,97341.13
2018-06-13T09:12:59.631Z,97348.45
2018-06-13T09:15:28.049Z,97345.60
2018-06-13T09:17:56.416Z,97349.66
2018-06-13T09:20:24.875Z,97348.11
2018-06-13T09:22:53.334Z,97361.18
2018-06-13T09:25:21.756Z,97355.81
2018-06-13T09:27:50.184Z,97353.66
2018-06-13T09:30:18.592Z,97358.11
2018-06-13T09:32:47.027Z,97357.66
2018-06-13T09:35:15.448Z,97360.06
2018-06-13T09:37:43.965Z,97358.20
2018-06-13T09:40:12.323Z,97360.76
2018-06-13T09:42:40.753Z,97358.05
2018-06-13T09:45:09.365Z,97362.78
2018-06-13T09:47:37.821Z,97363.91
2018-06-13T09:50:06.310Z,97364.27
2018-06-13T09:52:34.740Z,97364.27
2018-06-13T09:55:03.162Z,97367.17
2018-06-13T09:57:31.595Z,97366.27
2018-06-13T10:00:05.286Z,97365.73
2018-06-13T10:02:37.336Z,97365.55
2018-06-13T10:05:06.698Z,97368.81
2018-06-13T10:07:35.130Z,97372.80
2018-06-13T10:10:03.595Z,97374.02
2018-06-13T10:12:32.040Z,97373.97
2018-06-13T10:15:00.477Z,97371.30
2018-06-13T10:17:28.855Z,97371.79
2018-06-13T10:19:57.281Z,97373.02
2018-06-13T10:22:25.663Z,97380.20
2018-06-13T10:24:54.068Z,97376.15
2018-06-13T10:27:27.654Z,97372.33
2018-06-13T10:29:56.102Z,97374.80
2018-06-13T10:32:24.507Z,97375.45
2018-06-13T10:34:52.915Z,97383.45
2018-06-13T10:37:21.311Z,97383.53
2018-06-13T10:39:49.934Z,97385.02
2018-06-13T10:42:18.357Z,97387.28
2018-06-13T10:44:46.932Z,97388.67
2018-06-13T10:47:15.352Z,97390.66
2018-06-13T10:49:43.776Z,97392.27
2018-06-13T10:52:12.493Z,97391.82
2018-06-13T10:54:41.026Z,97396.05
2018-06-13T10:57:09.411Z,97393.34
2018-06-13T10:59:37.819Z,97399.28
2018-06-13T11:02:06.659Z,97399.47
2018-06-13T11:04:35.067Z,97398.28
2018-06-13T11:07:03.517Z,97408.81
2018-06-13T11:09:31.923Z,97407.48
2018-06-13T11:12:00.307Z,97411.49
2018-06-13T11:14:28.756Z,97404.48
2018-06-13T11:16:57.204Z,97415.83
2018-06-13T11:19:25.672Z,97422.94
2018-06-13T11:21:54.079Z,97423.97
2018-06-13T11:24:22.500Z,97419.13
2018-06-13T11:26:50.947Z,97414.59
2018-06-13T11:29:19.365Z,97430.54
2018-06-13T11:31:48.657Z,97431.34
2018-06-13T11:34:17.084Z,97425.59
2018-06-13T11:36:45.448Z,97428.10
2018-06-13T11:39:13.884Z,97437.03
2018-06-13T11:41:42.292Z,97436.62
2018-06-13T11:44:10.727Z,97442.73
2018-06-13T11:46:39.371Z,97438.94
2018-06-13T11:49:08.377Z,97440.37
2018-06-13T11:51:37.554Z,97448.22
2018-06-13T11:54:06.016Z,97446.03
2018-06-13T11:56:34.456Z,97446.40
2018-06-13T11:59:02.912Z,97453.37
2018-06-13T12:01:31.348Z,97449.08
2018-06-13T12:03:59.783Z,97457.87
2018-06-13T12:06:28.687Z,97458.38
2018-06-13T12:08:57.133Z,97457.69
2018-06-13T12:11:25.558Z,97463.05
2018-06-13T12:13:53.960Z,97470.03
2018-06-13T12:16:22.385Z,97468.36
2018-06-13T12:18:50.831Z,97477.66
2018-06-13T12:21:19.347Z,97473.67
2018-06-13T12:23:47.749Z,97479.63
2018-06-13T12:26:16.156Z,97480.30
2018-06-13T12:28:44.567Z,97485.28
2018-06-13T12:31:13.056Z,97492.55
2018-06-13T12:33:41.715Z,97487.25
2018-06-13T12:36:10.400Z,97491.82
2018-06-13T12:40:08.297Z,97491.66
2018-06-13T12:42:36.747Z,97499.88
2018-06-13T12:45:05.395Z,97488.92
2018-06-13T12:47:33.824Z,97503.98
2018-06-13T12:50:02.437Z,97506.28
2018-06-13T12:52:30.867Z,97513.58
2018-06-13T12:54:59.588Z,97514.27
2018-06-13T12:57:27.998Z,97514.14
2018-06-13T12:59:56.444Z,97524.77
2018-06-13T13:02:24.836Z,97525.09
2018-06-13T13:04:53.365Z,97525.51
2018-06-13T13:07:21.781Z,97526.95
2018-06-13T13:09:50.211Z,97532.66
2018-06-13T13:12:18.649Z,97541.42
2018-06-13T13:14:47.064Z,97548.40
2018-06-13T13:17:15.487Z,97548.92
2018-06-13T13:19:43.918Z,97543.76
2018-06-13T13:22:12.604Z,97543.65
2018-06-13T13:24:41.051Z,97548.75
2018-06-13T13:27:09.485Z,97552.88
2018-06-13T13:29:37.911Z,97550.16
2018-06-13T13:32:06.574Z,97556.98
2018-06-13T13:34:35.184Z,97556.02
2018-06-13T13:37:03.590Z,97561.34
2018-06-13T13:39:32.255Z,97552.79
2018-06-13T13:42:00.704Z,97561.91
2018-06-13T13:44:29.119Z,97561.17
2018-06-13T13:46:57.572Z,97565.47
2018-06-13T13:49:26.091Z,97562.15
2018-06-13T13:51:54.718Z,97557.68
2018-06-13T13:54:23.162Z,97552.17
2018-06-13T13:56:51.600Z,97559.67
2018-06-13T13:59:20.183Z,97562.02
2018-06-13T14:01:48.607Z,97562.05
2018-06-13T14:04:17.000Z,97557.68
2018-06-13T14:06:45.416Z,97557.98
2018-06-13T14:09:13.846Z,97559.01
2018-06-13T14:11:42.255Z,97571.70
2018-06-13T14:14:10.711Z,97567.13
2018-06-13T14:16:39.131Z,97569.41
2018-06-13T14:19:07.785Z,97574.19
2018-06-13T14:21:36.206Z,97573.19
2018-06-13T14:24:04.673Z,97574.84
2018-06-13T14:26:33.136Z,97581.23
2018-06-13T14:29:01.528Z,97583.84
2018-06-13T14:31:29.955Z,97582.98
2018-06-13T14:33:58.489Z,97583.21
2018-06-13T14:36:26.864Z,97583.05
2018-06-13T14:38:55.578Z,97588.97
2018-06-13T14:41:23.999Z,97592.51
2018-06-13T14:43:52.647Z,97592.99
2018-06-13T14:46:21.074Z,97597.38
2018-06-13T14:48:49.735Z,97596.12
2018-06-13T14:51:18.143Z,97590.86
2018-06-13T14:53:46.631Z,97601.65
2018-06-13T14:56:20.236Z,97599.67
2018-06-13T14:58:48.650Z,97601.80
2018-06-13T15:01:17.071Z,97604.88
2018-06-13T15:03:45.499Z,97602.84
2018-06-13T15:06:13.984Z,97603.65
2018-06-13T15:08:42.406Z,97603.69
2018-06-13T15:11:10.832Z,97607.24
2018-06-13T15:13:39.266Z,97601.22
2018-06-13T15:16:07.701Z,97606.69
2018-06-13T15:18:36.144Z,97609.72
2018-06-13T15:21:04.604Z,97612.00
2018-06-13T15:23:33.036Z,97613.50
2018-06-13T15:26:01.715Z,97619.16
2018-06-13T15:28:30.189Z,97620.20
2018-06-13T15:30:58.918Z,97616.91
2018-06-13T15:33:27.370Z,97620.12
2018-06-13T15:35:56.058Z,97626.27
2018-06-13T15:38:24.919Z,97634.44
2018-06-13T15:40:53.361Z,97629.06
2018-06-13T15:43:21.940Z,97638.34
2018-06-13T15:45:50.375Z,97643.41
2018-06-13T15:48:18.779Z,97641.83
2018-06-13T15:50:47.222Z,97648.83
2018-06-13T15:53:15.615Z,97650.42
2018-06-13T15:55:44.142Z,97660.37
2018-06-13T15:58:12.532Z,97657.81
2018-06-13T16:00:41.099Z,97665.27
2018-06-13T16:03:09.556Z,97670.89
2018-06-13T16:05:38.005Z,97674.13
2018-06-13T16:08:06.451Z,97672.41
2018-06-13T16:10:34.935Z,97680.27
2018-06-13T16:13:03.371Z,97677.45
2018-06-13T16:15:31.827Z,97679.25
2018-06-13T16:18:00.555Z,97671.86
2018-06-13T16:20:29.409Z,97673.81
2018-06-13T16:22:57.883Z,97680.53
2018-06-13T16:25:26.760Z,97684.69
2018-06-13T16:27:55.196Z,97680.77
2018-06-13T16:30:23.659Z,97687.48
2018-06-13T16:32:52.435Z,97692.91
2018-06-13T16:35:20.909Z,97692.91
2018-06-13T16:37:49.328Z,97696.89
2018-06-13T16:40:17.773Z,97699.39
2018-06-13T16:42:46.255Z,97707.16
2018-06-13T16:45:14.680Z,97700.48
2018-06-13T16:47:43.134Z,97718.21
2018-06-13T16:50:22.815Z,97713.48
2018-06-13T16:53:11.159Z,97718.65
2018-06-13T16:55:39.693Z,97718.97
2018-06-13T16:58:08.105Z,97725.23
2018-06-13T17:00:36.533Z,97731.22
2018-06-13T17:03:04.970Z,97735.22
2018-06-13T17:05:33.411Z,97729.30
2018-06-13T17:08:01.841Z,97734.12
2018-06-13T17:10:30.269Z,97739.72
2018-06-13T17:12:58.879Z,97743.05
2018-06-13T17:15:27.367Z,97744.37
2018-06-13T17:17:55.792Z,97740.41
2018-06-13T17:20:24.521Z,97753.25
2018-06-13T17:22:53.082Z,97757.08
2018-06-13T17:25:21.572Z,97757.88
2018-06-13T17:27:50.333Z,97762.39
2018-06-13T17:30:18.727Z,97760.46
2018-06-13T17:32:47.323Z,97763.36
2018-06-13T17:35:15.789Z,97772.88
2018-06-13T17:37:44.533Z,97765.48
2018-06-13T17:40:13.102Z,97772.30
2018-06-13T17:42:41.894Z,97769.76
2018-06-13T17:45:10.907Z,97785.13
2018-06-13T17:47:39.338Z,97777.88
2018-06-13T17:50:07.736Z,97780.44
2018-06-13T17:52:36.195Z,97791.09
2018-06-13T17:55:05.005Z,97787.34
2018-06-13T17:57:33.478Z,97789.72
2018-06-13T18:00:02.226Z,97792.23
2018-06-13T18:02:30.705Z,97792.53
2018-06-13T18:04:59.171Z,97792.77
2018-06-13T18:07:27.604Z,97795.54
2018-06-13T18:09:56.047Z,97800.66
2018-06-13T18:12:24.476Z,97804.28
2018-06-13T18:14:53.158Z,97799.28
2018-06-13T18:17:21.692Z,97802.06
2018-06-13T18:19:50.151Z,97806.56
2018-06-13T18:22:18.673Z,97807.07
2018-06-13T18:24:47.087Z,97806.33
2018-06-13T18:27:15.559Z,97807.24
2018-06-13T18:29:44.049Z,97815.56
2018-06-13T18:32:12.556Z,97818.50
2018-06-13T18:34:41.008Z,97814.27
2018-06-13T18:37:09.488Z,97819.47
2018-06-13T18:39:37.897Z,97818.78
2018-06-13T18:42:06.431Z,97828.48
2018-06-13T18:44:35.494Z,97820.91
2018-06-13T18:47:04.180Z,97829.61
2018-06-13T18:49:32.642Z,97838.27
2018-06-13T18:52:01.348Z,97838.27
2018-06-13T18:54:30.528Z,97838.83
2018-06-13T18:56:58.937Z,97839.37
2018-06-13T18:59:27.755Z,97853.09
2018-06-13T19:01:56.617Z,97855.19
2018-06-13T19:04:25.172Z,97865.30
2018-06-13T19:06:53.739Z,97867.64
2018-06-13T19:09:22.200Z,97872.92
2018-06-13T19:11:50.631Z,97883.05
2018-06-13T19:14:19.031Z,97884.99
2018-06-13T19:16:47.709Z,97895.76
2018-06-13T19:19:16.420Z,97899.45
2018-06-13T19:21:44.842Z,97908.06
2018-06-13T19:24:13.326Z,97913.27
2018-06-13T19:26:41.764Z,97905.64
2018-06-13T19:29:10.235Z,97913.45
2018-06-13T19:31:38.708Z,97919.83
2018-06-13T19:34:07.169Z,97923.44
2018-06-13T19:36:35.625Z,97930.38
2018-06-13T19:39:06.008Z,97929.33
2018-06-13T19:41:34.430Z,97933.15
2018-06-13T19:44:03.076Z,97939.92
2018-06-13T19:46:31.488Z,97950.23
2018-06-13T19:48:59.908Z,97946.39
2018-06-13T19:51:28.597Z,97946.11
2018-06-13T19:54:02.429Z,97948.27
2018-06-13T19:56:31.999Z,97950.84
2018-06-13T19:59:00.659Z,97954.05
2018-06-13T20:01:29.096Z,97954.00
2018-06-13T20:04:02.963Z,97957.48
2018-06-13T20:06:31.696Z,97956.44
2018-06-13T20:09:00.121Z,97961.59
2018-06-13T20:11:28.591Z,97956.02
2018-06-13T20:14:02.453Z,97962.91
2018-06-13T20:16:47.397Z,97965.41
2018-06-13T20:19:21.195Z,97971.20
2018-06-13T20:21:49.659Z,97975.92
2018-06-13T20:24:18.453Z,97974.97
2018-06-13T20:26:52.667Z,97982.75
2018-06-13T20:29:26.686Z,97977.88
2018-06-13T20:31:55.156Z,97977.73
2018-06-13T20:34:23.609Z,97983.61
2018-06-13T20:36:52.183Z,97988.27
2018-06-13T20:39:21.203Z,97990.48
2018-06-13T20:41:50.089Z,97995.03
2018-06-13T20:44:18.566Z,98002.81
2018-06-13T20:46:47.031Z,98008.11
2018-06-13T20:49:15.458Z,98008.53
2018-06-13T20:51:43.895Z,98012.23
2018-06-13T20:54:12.343Z,98005.97
2018-06-13T20:56:40.817Z,98005.25
2018-06-13T20:59:09.261Z,98005.61
2018-06-13T21:01:37.743Z,98008.68
2018-06-13T21:04:06.206Z,98017.48
2018-06-13T21:06:34.729Z,98022.17
2018-06-13T21:09:03.271Z,98021.84
2018-06-13T21:11:31.783Z,98032.61
2018-06-13T21:14:00.212Z,98026.47
2018-06-13T21:16:28.632Z,98035.04
2018-06-13T21:18:57.153Z,98039.86
2018-06-13T21:21:25.560Z,98035.83
2018-06-13T21:23:53.967Z,98047.09
2018-06-13T21:26:22.414Z,98051.75
2018-06-13T21:28:50.834Z,98048.36
2018-06-13T21:31:19.935Z,98043.19
2018-06-13T21:33:48.628Z,98052.50
2018-06-13T21:36:17.092Z,98061.91
2018-06-13T21:38:45.534Z,98041.19
2018-06-13T21:41:13.984Z,98069.74
2018-06-13T21:43:42.432Z,98063.83
2018-06-13T21:46:10.875Z,98058.79
2018-06-13T21:48:39.320Z,98065.82
2018-06-13T21:51:07.772Z,98065.83
2018-06-13T21:53:36.424Z,98065.30
2018-06-13T21:56:04.876Z,98063.08
2018-06-13T21:58:33.451Z,98072.92
2018-06-13T22:01:01.881Z,98069.84
2018-06-13T22:03:30.307Z,98067.89
2018-06-13T22:05:58.746Z,98078.47
2018-06-13T22:08:27.260Z,98075.13
2018-06-13T22:10:55.698Z,98073.64
2018-06-13T22:13:24.159Z,98082.20
2018-06-13T22:15:52.617Z,98079.73
2018-06-13T22:18:21.044Z,98081.58
2018-06-13T22:20:49.480Z,98080.33
2018-06-13T22:23:17.942Z,98081.31
2018-06-13T22:25:46.403Z,98083.33
2018-06-13T22:28:15.245Z,98089.89
2018-06-13T22:30:43.689Z,98087.30
2018-06-13T22:33:12.134Z,98086.98
2018-06-13T22:35:40.601Z,98083.57
2018-06-13T22:38:09.068Z,98079.50
2018-06-13T22:40:37.765Z,98083.62
2018-06-13T22:43:06.239Z,98087.70
2018-06-13T22:45:34.672Z,98088.39
2018-06-13T22:48:03.193Z,98088.53
2018-06-13T22:50:31.656Z,98091.59
2018-06-13T22:53:00.132Z,98097.18
2018-06-13T22:55:28.586Z,98098.94
2018-06-13T22:57:57.010Z,98097.95
2018-06-13T23:00:36.424Z,98096.95
2018-06-13T23:03:04.980Z,98093.69
2018-06-13T23:05:33.385Z,98096.73
2018-06-13T23:08:01.935Z,98100.30
2018-06-13T23:10:30.629Z,98095.86
2018-06-13T23:12:59.056Z,98109.58
2018-06-13T23:15:27.504Z,98109.83
2018-06-13T23:17:55.913Z,98106.94
2018-06-13T23:20:24.367Z,98107.34
2018-06-13T23:22:53.021Z,98107.78
2018-06-13T23:25:21.440Z,98105.72
2018-06-13T23:27:49.906Z,98108.25
2018-06-13T23:30:18.273Z,98113.77
2018-06-13T23:32:47.001Z,98110.75
2018-06-13T23:35:15.422Z,98113.50
2018-06-13T23:37:43.919Z,98113.77
2018-06-13T23:40:12.346Z,98102.16
2018-06-13T23:42:40.756Z,98105.50
2018-06-13T23:45:09.224Z,98103.81
2018-06-13T23:47:37.675Z,98103.27
2018-06-13T23:50:06.138Z,98115.52
2018-06-13T23:52:34.589Z,98116.18
2018-06-13T23:55:03.011Z,98118.16
2018-06-13T23:57:31.478Z,98115.00
2018-06-13T23:59:59.942Z,98118.82
